Time;durP1;ratioP1;P1;durP2;ratioP2;P2;SDS_P1;SDS_P2;PMS_P1;PMS_P2;Temp;Humidity;BMP_temperature;BMP_pressure;BME280_temperature;BME280_humidity;BME280_pressure;Samples;Min_cycle;Max_cycle;Signal;HPM_P1;HPM_P2
2023/01/30 00:02:10;;;;;;;;;;;0.60;99.90;;;;;;5056231;28;19916;-68
2023/01/30 00:04:36;;;;;;;;;;;0.80;99.90;;;;;;5056007;28;20345;-67
2023/01/30 00:07:01;;;;;;;;;;;0.70;99.90;;;;;;5055496;28;19909;-69
2023/01/30 00:09:27;;;;;;;;;;;0.70;99.90;;;;;;5053602;28;19912;-67
2023/01/30 00:11:52;;;;;;;;;;;0.70;99.90;;;;;;5053468;28;19916;-68
2023/01/30 00:14:17;;;;;;;;;;;0.80;99.90;;;;;;5053617;28;20274;-68
2023/01/30 00:16:43;;;;;;;;;;;0.70;99.90;;;;;;5053652;28;19909;-68
2023/01/30 00:19:08;;;;;;;;;;;0.80;99.90;;;;;;5054443;28;19908;-69
2023/01/30 00:21:34;;;;;;;;;;;0.70;99.90;;;;;;5055379;28;20003;-67
2023/01/30 00:23:59;;;;;;;;;;;0.70;99.90;;;;;;5057411;28;19912;-68
2023/01/30 00:26:25;;;;;;;;;;;0.70;99.90;;;;;;5058211;28;19988;-68
2023/01/30 00:28:50;;;;;;;;;;;0.70;99.90;;;;;;5073616;28;19913;-68
2023/01/30 00:31:16;;;;;;;;;;;0.60;99.90;;;;;;5056490;28;19909;-67
2023/01/30 00:33:41;;;;;;;;;;;0.70;99.90;;;;;;5057895;28;19909;-68
2023/01/30 00:36:08;;;;;;;;;;;0.70;99.90;;;;;;5057198;28;19973;-67
2023/01/30 00:38:34;;;;;;;;;;;0.60;99.90;;;;;;5056529;28;20409;-68
2023/01/30 00:40:59;;;;;;;;;;;0.50;99.90;;;;;;5056339;28;19917;-67
2023/01/30 00:48:55;;;;;;;;;;;0.50;99.90;;;;;;5058410;28;19916;-68
2023/01/30 00:51:20;;;;;;;;;;;0.50;99.90;;;;;;5058331;28;20301;-67
2023/01/30 00:53:45;;;;;;;;;;;0.40;99.90;;;;;;5056680;28;19908;-68
2023/01/30 00:56:11;;;;;;;;;;;0.40;99.90;;;;;;5056120;28;20025;-67
2023/01/30 00:58:36;;;;;;;;;;;0.50;99.90;;;;;;5057224;28;20082;-68
2023/01/30 01:01:02;;;;;;;;;;;0.50;99.90;;;;;;5055707;28;20438;-68
2023/01/30 01:03:27;;;;;;;;;;;0.50;99.90;;;;;;5056206;28;19916;-68
2023/01/30 01:05:53;;;;;;;;;;;0.50;99.90;;;;;;5056570;28;19944;-68
2023/01/30 01:08:19;;;;;;;;;;;0.50;99.90;;;;;;5057146;28;19955;-68
2023/01/30 01:10:44;;;;;;;;;;;0.50;99.90;;;;;;5057031;28;20288;-68
2023/01/30 01:13:10;;;;;;;;;;;0.50;99.90;;;;;;5056858;28;20286;-68
2023/01/30 01:15:35;;;;;;;;;;;0.40;99.90;;;;;;5063333;28;19909;-68
2023/01/30 01:18:01;;;;;;;;;;;0.40;99.90;;;;;;5073247;28;19920;-69
2023/01/30 01:20:26;;;;;;;;;;;0.50;99.90;;;;;;5070950;28;19909;-69
2023/01/30 01:22:52;;;;;;;;;;;0.50;99.90;;;;;;5069120;28;19920;-69
2023/01/30 01:25:18;;;;;;;;;;;0.50;99.90;;;;;;5067642;28;20339;-69
2023/01/30 01:27:44;;;;;;;;;;;0.40;99.90;;;;;;5060132;28;19913;-69
2023/01/30 01:30:10;;;;;;;;;;;0.50;99.90;;;;;;5058273;28;19999;-69
2023/01/30 01:32:35;;;;;;;;;;;0.40;99.90;;;;;;5061227;28;19908;-69
2023/01/30 01:35:01;;;;;;;;;;;0.40;99.90;;;;;;5073139;28;19909;-69
2023/01/30 01:37:26;;;;;;;;;;;0.50;99.90;;;;;;5072325;28;19909;-69
2023/01/30 01:42:37;;;;;;;;;;;0.50;99.90;;;;;;5057372;28;19971;-68
2023/01/30 01:45:13;;;;;;;;;;;0.50;99.90;;;;;;5057616;28;19909;-69
2023/01/30 01:47:42;;;;;;;;;;;0.40;99.90;;;;;;5056761;28;19977;-69
2023/01/30 01:50:21;;;;;;;;;;;0.40;99.90;;;;;;5055498;28;19951;-68
2023/01/30 01:52:47;;;;;;;;;;;0.30;99.90;;;;;;5056481;28;19909;-69
2023/01/30 01:55:14;;;;;;;;;;;0.30;99.90;;;;;;5057741;28;19995;-69
2023/01/30 01:58:05;;;;;;;;;;;0.40;99.90;;;;;;5056341;28;19908;-68
2023/01/30 02:00:31;;;;;;;;;;;0.40;99.90;;;;;;5051348;28;19915;-68
2023/01/30 02:02:58;;;;;;;;;;;0.50;99.90;;;;;;5088985;28;19913;-68
2023/01/30 02:05:32;;;;;;;;;;;0.50;99.90;;;;;;5084495;28;20072;-68
2023/01/30 02:08:00;;;;;;;;;;;0.50;99.90;;;;;;5054793;28;20140;-67
2023/01/30 02:10:30;;;;;;;;;;;0.50;99.90;;;;;;5055632;28;19974;-69
2023/01/30 02:12:55;;;;;;;;;;;0.40;99.90;;;;;;5055808;28;19909;-69
2023/01/30 02:15:21;;;;;;;;;;;0.40;99.90;;;;;;5055449;28;19920;-70
2023/01/30 02:17:46;;;;;;;;;;;0.30;99.90;;;;;;5054291;28;19909;-68
2023/01/30 02:20:27;;;;;;;;;;;0.40;99.90;;;;;;5054120;28;19909;-68
2023/01/30 02:23:11;;;;;;;;;;;0.40;99.90;;;;;;5055186;28;19913;-68
2023/01/30 02:25:39;;;;;;;;;;;0.50;99.90;;;;;;5055731;28;20281;-68
2023/01/30 02:28:17;;;;;;;;;;;0.50;99.90;;;;;;5054120;28;19909;-68
2023/01/30 02:31:01;;;;;;;;;;;0.40;99.90;;;;;;5053979;28;19909;-68
2023/01/30 02:33:40;;;;;;;;;;;0.30;99.90;;;;;;5070661;28;19915;-68
2023/01/30 02:36:13;;;;;;;;;;;0.20;99.90;;;;;;5055031;28;19916;-68
2023/01/30 02:38:47;;;;;;;;;;;0.30;99.90;;;;;;5053896;28;20358;-68
2023/01/30 02:41:19;;;;;;;;;;;0.30;99.90;;;;;;5054952;28;19917;-69
2023/01/30 02:43:50;;;;;;;;;;;0.30;99.90;;;;;;5054124;28;20324;-67
2023/01/30 02:46:15;;;;;;;;;;;0.20;99.90;;;;;;5055363;28;19944;-68
2023/01/30 02:48:45;;;;;;;;;;;0.20;99.90;;;;;;5055280;28;19931;-67
2023/01/30 02:51:12;;;;;;;;;;;0.20;99.90;;;;;;5053690;28;19913;-69
2023/01/30 02:53:38;;;;;;;;;;;0.10;99.90;;;;;;5055049;28;20381;-67
2023/01/30 02:56:03;;;;;;;;;;;0.20;99.90;;;;;;5055435;28;19908;-69
2023/01/30 02:58:31;;;;;;;;;;;0.20;99.90;;;;;;5054851;28;20258;-68
2023/01/30 03:01:02;;;;;;;;;;;0.20;99.90;;;;;;5055069;28;20353;-68
2023/01/30 03:03:43;;;;;;;;;;;0.30;99.90;;;;;;5055015;28;19967;-70
2023/01/30 03:06:09;;;;;;;;;;;0.40;99.90;;;;;;5054375;28;20453;-67
2023/01/30 03:08:53;;;;;;;;;;;0.30;99.90;;;;;;5054316;28;19947;-68
2023/01/30 03:11:23;;;;;;;;;;;0.30;99.90;;;;;;5054485;28;19959;-69
2023/01/30 03:13:53;;;;;;;;;;;0.30;99.90;;;;;;5053300;28;20285;-69
2023/01/30 03:16:30;;;;;;;;;;;0.40;99.90;;;;;;5052986;28;19909;-67
2023/01/30 03:18:55;;;;;;;;;;;0.50;99.90;;;;;;5054197;28;19915;-68
2023/01/30 03:21:21;;;;;;;;;;;0.50;99.90;;;;;;5053760;28;19908;-68
2023/01/30 03:23:46;;;;;;;;;;;0.50;99.90;;;;;;5054236;28;19936;-68
2023/01/30 03:26:16;;;;;;;;;;;0.60;99.90;;;;;;5054130;28;19909;-68
2023/01/30 03:28:41;;;;;;;;;;;0.60;99.90;;;;;;5053875;28;20011;-69
2023/01/30 03:31:08;;;;;;;;;;;0.50;99.90;;;;;;5052449;28;19944;-69
2023/01/30 03:33:34;;;;;;;;;;;0.50;99.90;;;;;;5054185;28;19909;-68
2023/01/30 03:35:59;;;;;;;;;;;0.60;99.90;;;;;;5053563;28;19999;-68
2023/01/30 03:38:25;;;;;;;;;;;0.70;99.90;;;;;;5053792;28;19909;-68
2023/01/30 03:40:50;;;;;;;;;;;0.80;99.90;;;;;;5052674;28;19975;-68
2023/01/30 03:43:15;;;;;;;;;;;0.80;99.90;;;;;;5052562;28;20226;-67
2023/01/30 03:45:41;;;;;;;;;;;0.80;99.90;;;;;;5054018;28;19931;-67
2023/01/30 03:48:06;;;;;;;;;;;0.90;99.90;;;;;;5053992;28;20356;-68
2023/01/30 03:50:32;;;;;;;;;;;0.90;99.90;;;;;;5053586;28;19952;-68
2023/01/30 03:52:58;;;;;;;;;;;1.00;99.90;;;;;;5053600;28;20003;-68
2023/01/30 03:55:24;;;;;;;;;;;1.00;99.90;;;;;;5054206;28;19916;-67
2023/01/30 03:57:53;;;;;;;;;;;1.10;99.90;;;;;;5053935;28;19909;-68
2023/01/30 04:00:18;;;;;;;;;;;1.10;99.90;;;;;;5052532;28;19968;-67
2023/01/30 04:02:44;;;;;;;;;;;1.00;99.90;;;;;;5052223;28;19956;-68
2023/01/30 04:05:09;;;;;;;;;;;1.10;99.90;;;;;;5079750;22;21092;-71
2023/01/30 04:07:35;;;;;;;;;;;1.20;99.90;;;;;;5081031;28;19920;-71
2023/01/30 04:10:00;;;;;;;;;;;1.20;99.90;;;;;;5056036;28;20003;-71
2023/01/30 04:12:26;;;;;;;;;;;1.20;99.90;;;;;;5054777;28;19912;-71
2023/01/30 04:14:51;;;;;;;;;;;1.10;99.90;;;;;;5054218;28;19908;-70
2023/01/30 04:17:16;;;;;;;;;;;1.20;99.90;;;;;;5054455;28;20001;-71
2023/01/30 04:19:42;;;;;;;;;;;1.20;99.90;;;;;;5054096;28;20320;-71
2023/01/30 04:22:07;;;;;;;;;;;1.30;99.90;;;;;;5053192;28;19982;-70
2023/01/30 04:24:33;;;;;;;;;;;1.30;99.90;;;;;;5053521;28;19916;-70
2023/01/30 04:26:58;;;;;;;;;;;1.20;99.90;;;;;;5053706;28;20392;-70
2023/01/30 04:29:24;;;;;;;;;;;1.30;99.90;;;;;;5052600;28;20013;-71
2023/01/30 04:31:49;;;;;;;;;;;1.30;99.90;;;;;;5053674;28;19909;-71
2023/01/30 04:34:15;;;;;;;;;;;1.40;99.90;;;;;;5053610;28;19909;-70
2023/01/30 04:36:40;;;;;;;;;;;1.50;99.90;;;;;;5057091;28;20284;-70
2023/01/30 04:39:06;;;;;;;;;;;1.50;99.90;;;;;;5073877;28;19954;-70
2023/01/30 04:41:31;;;;;;;;;;;1.50;99.90;;;;;;5073639;28;20031;-70
2023/01/30 04:43:57;;;;;;;;;;;1.40;99.90;;;;;;5073585;28;19920;-71
2023/01/30 04:46:22;;;;;;;;;;;1.40;99.90;;;;;;5073910;28;19916;-71
2023/01/30 04:48:47;;;;;;;;;;;1.40;99.90;;;;;;5073736;28;19920;-71
2023/01/30 04:51:13;;;;;;;;;;;1.50;99.90;;;;;;5073610;28;19914;-71
2023/01/30 04:53:38;;;;;;;;;;;1.60;99.90;;;;;;5073329;28;20269;-71
2023/01/30 04:56:04;;;;;;;;;;;1.50;99.90;;;;;;5056005;28;19912;-72
2023/01/30 04:58:30;;;;;;;;;;;1.50;99.90;;;;;;5073879;28;19908;-71
2023/01/30 05:00:55;;;;;;;;;;;1.50;99.90;;;;;;5074101;28;19935;-71
2023/01/30 05:03:21;;;;;;;;;;;1.50;99.90;;;;;;5073811;28;19912;-70
2023/01/30 05:05:46;;;;;;;;;;;1.50;99.90;;;;;;5073757;28;19916;-71
2023/01/30 05:08:12;;;;;;;;;;;1.60;99.90;;;;;;5075670;28;20379;-71
2023/01/30 05:10:37;;;;;;;;;;;1.60;99.90;;;;;;5077091;28;19909;-71
2023/01/30 05:13:04;;;;;;;;;;;1.60;99.90;;;;;;5077174;28;20335;-71
2023/01/30 05:15:29;;;;;;;;;;;1.60;99.90;;;;;;5076857;28;20365;-71
2023/01/30 05:17:55;;;;;;;;;;;1.50;99.90;;;;;;5076810;28;19909;-71
2023/01/30 05:20:20;;;;;;;;;;;1.40;99.90;;;;;;5076731;28;19916;-71
2023/01/30 05:22:46;;;;;;;;;;;1.50;99.90;;;;;;5077149;28;19912;-71
2023/01/30 05:25:11;;;;;;;;;;;1.50;99.90;;;;;;5077534;28;19909;-71
2023/01/30 05:27:37;;;;;;;;;;;1.50;99.90;;;;;;5059432;28;19916;-71
2023/01/30 05:30:02;;;;;;;;;;;1.60;99.90;;;;;;5058792;28;19912;-71
2023/01/30 05:32:29;;;;;;;;;;;1.50;99.90;;;;;;5076460;28;20311;-71
2023/01/30 05:34:55;;;;;;;;;;;1.50;99.90;;;;;;5058625;28;19962;-71
2023/01/30 05:37:21;;;;;;;;;;;1.50;99.90;;;;;;5075808;28;19913;-71
2023/01/30 05:39:46;;;;;;;;;;;1.50;99.90;;;;;;5076723;28;19915;-70
2023/01/30 05:42:12;;;;;;;;;;;1.40;99.90;;;;;;5077854;28;20374;-71
2023/01/30 05:44:38;;;;;;;;;;;1.40;99.90;;;;;;5080264;28;20373;-70
2023/01/30 05:47:03;;;;;;;;;;;1.30;99.90;;;;;;5083189;28;19908;-70
2023/01/30 05:49:29;;;;;;;;;;;1.40;99.90;;;;;;5065166;28;20388;-69
2023/01/30 05:51:54;;;;;;;;;;;1.50;99.90;;;;;;5065709;28;19952;-70
2023/01/30 05:54:20;;;;;;;;;;;1.40;99.90;;;;;;5063581;28;19909;-70
2023/01/30 05:56:49;;;;;;;;;;;1.40;99.90;;;;;;5059711;28;19915;-71
2023/01/30 05:59:15;;;;;;;;;;;1.50;99.90;;;;;;5058731;28;20006;-70
2023/01/30 06:01:40;;;;;;;;;;;1.50;99.90;;;;;;5050285;28;19947;-71
2023/01/30 06:04:06;;;;;;;;;;;1.50;99.90;;;;;;5056221;28;19948;-71
2023/01/30 06:06:31;;;;;;;;;;;1.50;99.90;;;;;;5060649;28;20369;-71
2023/01/30 06:08:57;;;;;;;;;;;1.50;99.90;;;;;;5075618;28;19909;-71
2023/01/30 06:11:23;;;;;;;;;;;1.50;99.90;;;;;;5058184;28;20038;-71
2023/01/30 06:13:48;;;;;;;;;;;1.50;99.90;;;;;;5059282;28;19920;-71
2023/01/30 06:16:14;;;;;;;;;;;1.40;99.90;;;;;;5075983;28;19909;-71
2023/01/30 06:18:40;;;;;;;;;;;1.30;99.90;;;;;;5075165;28;19915;-71
2023/01/30 06:21:06;;;;;;;;;;;1.30;99.90;;;;;;5058965;28;19909;-73
2023/01/30 06:23:31;;;;;;;;;;;1.20;99.90;;;;;;5076301;28;20399;-72
2023/01/30 06:25:57;;;;;;;;;;;1.10;99.90;;;;;;5078411;28;20287;-72
2023/01/30 06:28:23;;;;;;;;;;;1.10;99.90;;;;;;5067036;28;20000;-72
2023/01/30 06:30:49;;;;;;;;;;;1.10;99.90;;;;;;5039650;28;19916;-71
2023/01/30 06:33:14;;;;;;;;;;;1.20;99.90;;;;;;5056710;28;20281;-70
2023/01/30 06:35:40;;;;;;;;;;;1.20;99.90;;;;;;5048628;28;20373;-71
2023/01/30 06:38:10;;;;;;;;;;;1.10;99.90;;;;;;5070569;28;19909;-70
2023/01/30 06:40:39;;;;;;;;;;;1.30;99.90;;;;;;5075771;28;19962;-71
2023/01/30 06:43:04;;;;;;;;;;;1.30;99.90;;;;;;5075952;28;19917;-74
2023/01/30 06:45:30;;;;;;;;;;;1.50;99.90;;;;;;5077445;28;19909;-74
2023/01/30 06:47:55;;;;;;;;;;;1.50;99.90;;;;;;5076160;28;19962;-74
2023/01/30 06:50:22;;;;;;;;;;;1.50;99.90;;;;;;5057764;28;19944;-71
2023/01/30 06:52:49;;;;;;;;;;;1.50;99.90;;;;;;5076017;28;20432;-71
2023/01/30 06:55:15;;;;;;;;;;;1.60;99.90;;;;;;5054864;28;19935;-72
2023/01/30 06:57:42;;;;;;;;;;;1.50;99.90;;;;;;5055227;28;19913;-70
2023/01/30 07:00:09;;;;;;;;;;;1.50;99.90;;;;;;5054738;28;20318;-71
2023/01/30 07:02:35;;;;;;;;;;;1.50;99.90;;;;;;5050615;28;20396;-72
2023/01/30 07:05:01;;;;;;;;;;;1.50;99.90;;;;;;5065501;28;19913;-70
2023/01/30 07:07:27;;;;;;;;;;;1.50;99.90;;;;;;5066199;28;19917;-71
2023/01/30 07:09:53;;;;;;;;;;;1.60;99.90;;;;;;5069353;28;19999;-70
2023/01/30 07:12:19;;;;;;;;;;;1.50;99.90;;;;;;5049701;28;20328;-72
2023/01/30 07:14:44;;;;;;;;;;;1.50;99.90;;;;;;5047923;28;19919;-71
2023/01/30 07:17:10;;;;;;;;;;;1.60;99.90;;;;;;5071689;28;19916;-69
2023/01/30 07:19:35;;;;;;;;;;;1.70;99.90;;;;;;5053762;28;20373;-70
2023/01/30 07:22:00;;;;;;;;;;;1.60;99.90;;;;;;5042487;28;19987;-70
2023/01/30 07:24:26;;;;;;;;;;;1.60;99.90;;;;;;5063068;28;20335;-70
2023/01/30 07:26:51;;;;;;;;;;;1.70;99.90;;;;;;5068063;28;19974;-70
2023/01/30 07:29:17;;;;;;;;;;;1.60;99.90;;;;;;5054656;28;19908;-70
2023/01/30 07:31:42;;;;;;;;;;;1.60;99.90;;;;;;5055012;28;19915;-71
2023/01/30 07:34:08;;;;;;;;;;;1.70;99.90;;;;;;5053970;28;20293;-71
2023/01/30 07:36:33;;;;;;;;;;;1.60;99.90;;;;;;5039295;28;19928;-68
2023/01/30 07:39:00;;;;;;;;;;;1.50;99.90;;;;;;5074037;28;19914;-69
2023/01/30 07:41:26;;;;;;;;;;;1.50;99.90;;;;;;5057175;28;19919;-69
2023/01/30 07:43:52;;;;;;;;;;;1.50;99.90;;;;;;5077100;28;19934;-69
2023/01/30 07:46:17;;;;;;;;;;;1.60;99.90;;;;;;5080966;28;19909;-69
2023/01/30 07:48:43;;;;;;;;;;;1.50;99.90;;;;;;5081262;28;19915;-69
2023/01/30 07:51:09;;;;;;;;;;;1.40;99.90;;;;;;5075261;28;19909;-70
2023/01/30 07:53:35;;;;;;;;;;;1.40;99.90;;;;;;5056655;28;20376;-71
2023/01/30 07:56:09;;;;;;;;;;;1.40;99.90;;;;;;5056593;28;19999;-69
2023/01/30 07:58:35;;;;;;;;;;;1.40;99.90;;;;;;5056298;28;19919;-68
2023/01/30 08:01:00;;;;;;;;;;;1.40;99.90;;;;;;5074007;28;19908;-68
2023/01/30 08:03:26;;;;;;;;;;;1.50;99.90;;;;;;5073477;28;19935;-68
2023/01/30 08:05:52;;;;;;;;;;;1.60;99.90;;;;;;5073730;28;19916;-69
2023/01/30 08:08:18;;;;;;;;;;;1.70;99.90;;;;;;5073583;28;19908;-70
2023/01/30 08:10:44;;;;;;;;;;;1.80;99.90;;;;;;5073686;28;19908;-70
2023/01/30 08:13:10;;;;;;;;;;;1.80;99.90;;;;;;5056042;28;20003;-70
2023/01/30 08:15:35;;;;;;;;;;;1.80;99.90;;;;;;5090291;28;19909;-69
2023/01/30 08:18:01;;;;;;;;;;;1.70;99.90;;;;;;5075776;28;19908;-69
2023/01/30 08:20:27;;;;;;;;;;;1.70;99.90;;;;;;5078824;28;19909;-74
2023/01/30 08:22:53;;;;;;;;;;;1.70;99.90;;;;;;5063274;28;19965;-69
2023/01/30 08:25:18;;;;;;;;;;;1.70;99.90;;;;;;5083292;28;20056;-70
2023/01/30 08:27:44;;;;;;;;;;;1.70;99.90;;;;;;5078971;28;19931;-68
2023/01/30 08:30:10;;;;;;;;;;;1.80;99.90;;;;;;5074640;28;19908;-70
2023/01/30 08:32:35;;;;;;;;;;;1.90;99.90;;;;;;5056456;28;19915;-73
2023/01/30 08:35:01;;;;;;;;;;;1.90;99.90;;;;;;5094990;28;19939;-69
2023/01/30 08:37:26;;;;;;;;;;;1.80;99.90;;;;;;5075881;28;19935;-67
2023/01/30 08:39:52;;;;;;;;;;;1.80;99.90;;;;;;5074048;28;19995;-69
2023/01/30 08:42:17;;;;;;;;;;;1.90;99.90;;;;;;5057181;28;19908;-69
2023/01/30 08:44:43;;;;;;;;;;;1.90;99.90;;;;;;5077699;28;20452;-69
2023/01/30 08:47:08;;;;;;;;;;;1.90;99.90;;;;;;5077623;28;19916;-68
2023/01/30 08:49:33;;;;;;;;;;;1.80;99.90;;;;;;5077449;28;20373;-68
2023/01/30 08:51:59;;;;;;;;;;;1.80;99.90;;;;;;5077468;28;19957;-68
2023/01/30 08:54:24;;;;;;;;;;;1.80;99.90;;;;;;5079153;28;19913;-70
2023/01/30 08:56:50;;;;;;;;;;;1.80;99.90;;;;;;5083444;28;19919;-67
2023/01/30 08:59:15;;;;;;;;;;;1.90;99.90;;;;;;5080293;28;19908;-71
2023/01/30 09:01:41;;;;;;;;;;;1.90;99.90;;;;;;5077396;28;19908;-70
2023/01/30 09:04:06;;;;;;;;;;;1.90;99.90;;;;;;5058859;28;20387;-70
2023/01/30 09:06:32;;;;;;;;;;;1.90;99.90;;;;;;5076592;28;19923;-68
2023/01/30 09:08:57;;;;;;;;;;;1.80;99.90;;;;;;5058834;28;19908;-71
2023/01/30 09:11:23;;;;;;;;;;;1.80;99.90;;;;;;5077196;28;19931;-67
2023/01/30 09:13:48;;;;;;;;;;;1.80;99.90;;;;;;5078360;28;19957;-68
2023/01/30 09:16:14;;;;;;;;;;;1.90;99.90;;;;;;5078693;28;19932;-69
2023/01/30 09:18:40;;;;;;;;;;;2.00;99.90;;;;;;5077114;28;19909;-70
2023/01/30 09:21:06;;;;;;;;;;;2.00;99.90;;;;;;5076867;28;19952;-70
2023/01/30 09:23:32;;;;;;;;;;;2.00;99.90;;;;;;5076945;28;20423;-70
2023/01/30 09:25:59;;;;;;;;;;;2.10;99.90;;;;;;5059560;28;19908;-70
2023/01/30 09:28:24;;;;;;;;;;;2.10;99.90;;;;;;5076748;28;19916;-71
2023/01/30 09:30:50;;;;;;;;;;;2.20;99.90;;;;;;5076959;28;19909;-70
2023/01/30 09:33:19;;;;;;;;;;;2.20;99.90;;;;;;5076565;28;19909;-70
2023/01/30 09:35:47;;;;;;;;;;;2.30;99.90;;;;;;5067422;28;20280;-70
2023/01/30 09:38:13;;;;;;;;;;;2.30;99.90;;;;;;5057116;28;19909;-71
2023/01/30 09:40:48;;;;;;;;;;;2.30;99.90;;;;;;5056611;28;19955;-70
2023/01/30 09:43:14;;;;;;;;;;;2.30;99.90;;;;;;5056555;28;19913;-70
2023/01/30 09:45:44;;;;;;;;;;;2.30;99.90;;;;;;5038564;28;19909;-70
2023/01/30 09:48:15;;;;;;;;;;;2.30;99.90;;;;;;5056350;28;19916;-70
2023/01/30 09:51:00;;;;;;;;;;;2.30;99.90;;;;;;5038017;28;19915;-71
2023/01/30 09:53:38;;;;;;;;;;;2.30;99.90;;;;;;5040689;28;19913;-71
2023/01/30 09:56:04;;;;;;;;;;;2.30;99.90;;;;;;5040650;28;19944;-71
2023/01/30 09:58:45;;;;;;;;;;;2.40;99.90;;;;;;5042014;28;19909;-71
2023/01/30 10:01:15;;;;;;;;;;;2.30;99.90;;;;;;5056103;28;20344;-70
2023/01/30 10:03:48;;;;;;;;;;;2.40;99.90;;;;;;5037768;28;20016;-69
2023/01/30 10:06:15;;;;;;;;;;;2.50;99.90;;;;;;5070544;23;20035;-68
2023/01/30 10:08:59;;;;;;;;;;;2.50;99.90;;;;;;5073488;28;19912;-68
2023/01/30 10:11:33;;;;;;;;;;;2.50;99.90;;;;;;5055184;28;21532;-68
2023/01/30 10:14:06;;;;;;;;;;;2.50;99.90;;;;;;5065976;28;20486;-66
2023/01/30 10:16:52;;;;;;;;;;;2.50;99.90;;;;;;5081485;28;19948;-68
2023/01/30 10:19:21;;;;;;;;;;;2.60;99.90;;;;;;5069153;28;19934;-67
2023/01/30 10:21:54;;;;;;;;;;;2.60;99.90;;;;;;5060614;28;19908;-68
2023/01/30 10:24:34;;;;;;;;;;;2.70;99.90;;;;;;5083032;28;19917;-68
2023/01/30 10:27:00;;;;;;;;;;;2.70;99.90;;;;;;5069683;28;20402;-68
2023/01/30 10:29:31;;;;;;;;;;;2.70;99.90;;;;;;5072285;28;19908;-70
2023/01/30 10:32:01;;;;;;;;;;;2.70;99.90;;;;;;5062057;28;19920;-69
2023/01/30 10:34:37;;;;;;;;;;;2.70;99.90;;;;;;5093296;28;19908;-68
2023/01/30 10:37:03;;;;;;;;;;;2.70;99.90;;;;;;5076912;28;20008;-68
2023/01/30 10:39:40;;;;;;;;;;;2.70;99.90;;;;;;5076109;28;19975;-69
2023/01/30 10:42:13;;;;;;;;;;;2.60;99.90;;;;;;5072879;28;20000;-68
2023/01/30 10:44:39;;;;;;;;;;;2.60;99.90;;;;;;5076358;28;19975;-67
2023/01/30 10:47:19;;;;;;;;;;;2.60;99.90;;;;;;5074167;28;19908;-68
2023/01/30 10:49:47;;;;;;;;;;;2.60;99.90;;;;;;5090559;28;20337;-69
2023/01/30 10:52:19;;;;;;;;;;;2.70;99.90;;;;;;5058988;28;19998;-68
2023/01/30 10:54:55;;;;;;;;;;;2.60;99.90;;;;;;5068537;28;19916;-68
2023/01/30 10:57:39;;;;;;;;;;;2.70;99.90;;;;;;5084179;28;19908;-68
2023/01/30 11:00:12;;;;;;;;;;;2.70;99.90;;;;;;5077634;28;19930;-67
2023/01/30 11:02:57;;;;;;;;;;;2.70;99.90;;;;;;5065373;28;19920;-68
2023/01/30 11:05:29;;;;;;;;;;;2.70;99.90;;;;;;5067323;28;20368;-69
2023/01/30 11:07:54;;;;;;;;;;;2.70;99.90;;;;;;5074452;28;19916;-69
2023/01/30 11:10:22;;;;;;;;;;;2.70;99.90;;;;;;5074730;28;20268;-69
2023/01/30 11:12:51;;;;;;;;;;;2.70;99.90;;;;;;5090085;28;19913;-68
2023/01/30 11:15:16;;;;;;;;;;;2.60;99.90;;;;;;5067428;28;20007;-68
2023/01/30 11:17:44;;;;;;;;;;;2.60;99.90;;;;;;5073905;28;19944;-68
2023/01/30 11:20:14;;;;;;;;;;;2.60;99.90;;;;;;5068033;28;20276;-68
2023/01/30 11:22:48;;;;;;;;;;;2.60;99.90;;;;;;5074016;28;19908;-69
2023/01/30 11:25:15;;;;;;;;;;;2.50;99.90;;;;;;5072989;28;19908;-68
2023/01/30 11:27:43;;;;;;;;;;;2.50;99.90;;;;;;5053889;28;19909;-69
2023/01/30 11:30:13;;;;;;;;;;;2.50;99.90;;;;;;5056784;28;19913;-69
2023/01/30 11:32:40;;;;;;;;;;;2.50;99.90;;;;;;5067681;28;20011;-69
2023/01/30 11:35:05;;;;;;;;;;;2.60;99.90;;;;;;5067572;28;19970;-68
2023/01/30 11:37:32;;;;;;;;;;;2.60;99.90;;;;;;5061159;28;19913;-68
2023/01/30 11:39:58;;;;;;;;;;;2.60;99.90;;;;;;5059854;28;20373;-69
2023/01/30 11:42:28;;;;;;;;;;;2.60;99.90;;;;;;5058753;28;19913;-69
2023/01/30 11:44:55;;;;;;;;;;;2.60;99.90;;;;;;5064808;28;19916;-69
2023/01/30 11:47:26;;;;;;;;;;;2.60;99.90;;;;;;5054204;28;19909;-65
2023/01/30 11:49:55;;;;;;;;;;;2.70;99.90;;;;;;5062780;28;20001;-68
2023/01/30 11:52:32;;;;;;;;;;;2.60;99.90;;;;;;5072040;28;20388;-68
2023/01/30 11:55:04;;;;;;;;;;;2.60;99.90;;;;;;5070920;28;20385;-67
2023/01/30 11:57:37;;;;;;;;;;;2.60;99.90;;;;;;5070966;28;19913;-67
2023/01/30 12:00:03;;;;;;;;;;;2.50;99.90;;;;;;5067338;28;20383;-68
2023/01/30 12:02:30;;;;;;;;;;;2.40;99.90;;;;;;5071845;28;19912;-68
2023/01/30 12:04:59;;;;;;;;;;;2.40;99.90;;;;;;5072699;28;19918;-69
2023/01/30 12:07:26;;;;;;;;;;;2.30;99.90;;;;;;5072263;28;20257;-67
2023/01/30 12:09:53;;;;;;;;;;;2.40;99.90;;;;;;5073624;28;19916;-68
2023/01/30 12:12:37;;;;;;;;;;;2.30;99.90;;;;;;5073821;28;20335;-66
2023/01/30 12:15:10;;;;;;;;;;;2.30;99.90;;;;;;5065810;28;19988;-67
2023/01/30 12:17:43;;;;;;;;;;;2.20;99.90;;;;;;5065347;28;20275;-68
2023/01/30 12:20:12;;;;;;;;;;;2.30;99.90;;;;;;5077080;28;19909;-67
2023/01/30 12:22:54;;;;;;;;;;;2.40;99.90;;;;;;5077959;28;19936;-67
2023/01/30 12:25:30;;;;;;;;;;;2.40;99.90;;;;;;5078321;28;19908;-67
2023/01/30 12:28:02;;;;;;;;;;;2.40;99.90;;;;;;5076885;28;20292;-67
2023/01/30 12:30:30;;;;;;;;;;;2.50;99.90;;;;;;5081405;28;20299;-67
2023/01/30 12:32:59;;;;;;;;;;;2.40;99.90;;;;;;5080694;28;20382;-68
2023/01/30 12:35:29;;;;;;;;;;;2.40;99.90;;;;;;5077587;28;19921;-68
2023/01/30 12:38:14;;;;;;;;;;;2.40;99.90;;;;;;5076766;28;19909;-68
2023/01/30 12:40:52;;;;;;;;;;;2.30;99.90;;;;;;5077899;28;19908;-70
2023/01/30 12:43:17;;;;;;;;;;;2.40;99.90;;;;;;5076620;28;20011;-70
2023/01/30 12:45:53;;;;;;;;;;;2.40;99.90;;;;;;5076167;28;19947;-69
2023/01/30 12:48:30;;;;;;;;;;;2.40;99.90;;;;;;5077242;28;19936;-69
2023/01/30 12:50:55;;;;;;;;;;;2.50;99.90;;;;;;5075931;28;19915;-69
2023/01/30 12:53:25;;;;;;;;;;;2.50;99.90;;;;;;5075861;28;19909;-68
2023/01/30 12:56:08;;;;;;;;;;;2.60;99.90;;;;;;5067091;28;19935;-69
2023/01/30 12:58:37;;;;;;;;;;;2.50;99.90;;;;;;5075809;28;19916;-68
2023/01/30 13:01:28;;;;;;;;;;;2.60;99.90;;;;;;5074261;28;20281;-68
2023/01/30 13:03:53;;;;;;;;;;;2.60;99.90;;;;;;5079692;28;19912;-69
2023/01/30 13:06:27;;;;;;;;;;;2.60;99.90;;;;;;5077453;28;19927;-68
2023/01/30 13:09:16;;;;;;;;;;;2.60;99.90;;;;;;5075646;28;19909;-66
2023/01/30 13:12:01;;;;;;;;;;;2.60;99.90;;;;;;5065667;28;20285;-66
2023/01/30 13:14:32;;;;;;;;;;;2.60;99.90;;;;;;5075627;28;20394;-65
2023/01/30 13:16:59;;;;;;;;;;;2.70;99.90;;;;;;5076492;28;19913;-66
2023/01/30 13:19:30;;;;;;;;;;;2.70;99.90;;;;;;5076888;28;20424;-66
2023/01/30 13:22:15;;;;;;;;;;;2.60;99.90;;;;;;5074302;28;19938;-67
2023/01/30 13:24:40;;;;;;;;;;;2.60;99.90;;;;;;5076672;28;19916;-67
2023/01/30 13:27:08;;;;;;;;;;;2.70;99.90;;;;;;5075674;28;19931;-68
2023/01/30 13:29:38;;;;;;;;;;;2.70;99.90;;;;;;5075978;28;19947;-68
2023/01/30 13:32:05;;;;;;;;;;;2.70;99.90;;;;;;5076732;28;20338;-67
2023/01/30 13:34:35;;;;;;;;;;;2.70;99.90;;;;;;5076425;28;19952;-70
2023/01/30 13:37:03;;;;;;;;;;;2.70;99.90;;;;;;5074887;28;19909;-70
2023/01/30 13:39:34;;;;;;;;;;;2.70;99.90;;;;;;5076499;28;20451;-69
2023/01/30 13:42:01;;;;;;;;;;;2.70;99.90;;;;;;5072790;28;19916;-68
2023/01/30 13:44:30;;;;;;;;;;;2.80;99.90;;;;;;5055093;28;20390;-69
2023/01/30 13:46:56;;;;;;;;;;;2.80;99.90;;;;;;5065331;28;19917;-69
2023/01/30 13:49:30;;;;;;;;;;;2.80;99.90;;;;;;5064417;28;19917;-69
2023/01/30 13:52:07;;;;;;;;;;;2.80;99.90;;;;;;5069014;28;20340;-67
2023/01/30 13:54:42;;;;;;;;;;;2.80;99.90;;;;;;5065084;28;19912;-67
2023/01/30 13:57:07;;;;;;;;;;;2.80;99.90;;;;;;5075821;28;20372;-67
2023/01/30 13:59:50;;;;;;;;;;;2.80;99.90;;;;;;5076298;28;19915;-68
2023/01/30 14:02:17;;;;;;;;;;;2.90;99.90;;;;;;5074627;28;20277;-70
2023/01/30 14:04:44;;;;;;;;;;;2.90;99.90;;;;;;5074508;28;20391;-66
2023/01/30 14:07:12;;;;;;;;;;;2.90;99.90;;;;;;5074185;28;19916;-68
2023/01/30 14:09:40;;;;;;;;;;;2.90;99.90;;;;;;5076556;28;19974;-70
2023/01/30 14:12:05;;;;;;;;;;;2.90;99.90;;;;;;5075565;28;20007;-71
2023/01/30 14:14:35;;;;;;;;;;;2.90;99.90;;;;;;5074356;28;19944;-70
2023/01/30 14:17:14;;;;;;;;;;;2.90;99.90;;;;;;5074358;28;19909;-66
2023/01/30 14:19:58;;;;;;;;;;;2.80;99.90;;;;;;5075871;28;19908;-69
2023/01/30 14:22:30;;;;;;;;;;;2.90;99.90;;;;;;5073984;28;19931;-68
2023/01/30 14:25:18;;;;;;;;;;;2.90;99.90;;;;;;5075479;28;20315;-69
2023/01/30 14:27:43;;;;;;;;;;;2.90;99.90;;;;;;5075375;28;19912;-66
2023/01/30 14:30:29;;;;;;;;;;;2.90;99.90;;;;;;5075368;28;19908;-69
2023/01/30 14:32:55;;;;;;;;;;;2.90;99.90;;;;;;5068104;28;19909;-66
2023/01/30 14:35:25;;;;;;;;;;;3.00;99.90;;;;;;5073028;28;20284;-67
2023/01/30 14:38:03;;;;;;;;;;;3.00;99.90;;;;;;5073965;28;19909;-67
2023/01/30 14:40:30;;;;;;;;;;;3.00;99.90;;;;;;5073168;28;19908;-66
2023/01/30 14:43:11;;;;;;;;;;;3.00;99.90;;;;;;5075492;28;20288;-67
2023/01/30 14:45:51;;;;;;;;;;;3.10;99.90;;;;;;5076079;28;19912;-67
2023/01/30 14:48:38;;;;;;;;;;;3.10;99.90;;;;;;5077229;28;19915;-67